createdAt,value
2018-03-16T00:00:43.786Z,946.53
2018-03-16T00:01:43.784Z,946.56
2018-03-16T00:02:43.778Z,946.51
2018-03-16T00:03:43.776Z,946.50
2018-03-16T00:04:43.769Z,946.51
2018-03-16T00:05:43.762Z,946.48
2018-03-16T00:06:43.759Z,946.50
2018-03-16T00:07:43.756Z,946.49
2018-03-16T00:08:43.749Z,946.50
2018-03-16T00:09:43.742Z,946.46
2018-03-16T00:10:43.738Z,946.52
2018-03-16T00:11:43.736Z,946.47
2018-03-16T00:12:43.728Z,946.49
2018-03-16T00:13:43.723Z,946.51
2018-03-16T00:14:43.717Z,946.53
2018-03-16T00:15:43.712Z,946.53
2018-03-16T00:16:43.708Z,946.55
2018-03-16T00:17:43.701Z,946.59
2018-03-16T00:18:43.696Z,946.56
2018-03-16T00:19:43.694Z,946.57
2018-03-16T00:20:43.686Z,946.59
2018-03-16T00:21:43.680Z,946.61
2018-03-16T00:22:43.676Z,946.58
2018-03-16T00:23:43.672Z,946.58
2018-03-16T00:24:43.667Z,946.61
2018-03-16T00:25:43.716Z,946.62
2018-03-16T00:26:43.656Z,946.66
2018-03-16T00:27:43.653Z,946.68
2018-03-16T00:28:43.646Z,946.66
2018-03-16T00:29:43.646Z,946.65
2018-03-16T00:30:43.636Z,946.64
2018-03-16T00:31:43.637Z,946.69
2018-03-16T00:32:43.627Z,946.62
2018-03-16T00:33:43.623Z,946.62
2018-03-16T00:34:43.614Z,946.65
2018-03-16T00:35:43.611Z,946.69
2018-03-16T00:36:43.607Z,946.68
2018-03-16T00:37:43.601Z,946.71
2018-03-16T00:38:43.594Z,946.73
2018-03-16T00:39:43.590Z,946.77
2018-03-16T00:40:43.584Z,946.78
2018-03-16T00:41:43.583Z,946.74
2018-03-16T00:42:43.577Z,946.76
2018-03-16T00:43:43.571Z,946.75
2018-03-16T00:44:43.565Z,946.77
2018-03-16T00:45:43.560Z,946.77
2018-03-16T00:46:43.556Z,946.80
2018-03-16T00:47:43.550Z,946.80
2018-03-16T00:48:43.545Z,946.77
2018-03-16T00:49:43.541Z,946.81
2018-03-16T00:50:43.535Z,946.81
2018-03-16T00:51:43.531Z,946.82
2018-03-16T00:52:43.525Z,946.86
2018-03-16T00:53:43.524Z,946.88
2018-03-16T00:54:43.516Z,946.88
2018-03-16T00:55:43.510Z,946.89
2018-03-16T00:56:43.504Z,946.88
2018-03-16T00:57:43.501Z,946.85
2018-03-16T00:58:43.495Z,946.89
2018-03-16T00:59:43.494Z,946.87
2018-03-16T01:00:43.486Z,946.88
2018-03-16T01:01:43.482Z,946.85
2018-03-16T01:02:43.476Z,946.88
2018-03-16T01:03:43.469Z,946.90
2018-03-16T01:04:43.466Z,946.91
2018-03-16T01:05:43.463Z,946.90
2018-03-16T01:06:43.455Z,946.87
2018-03-16T01:07:43.453Z,946.89
2018-03-16T01:08:43.471Z,946.87
2018-03-16T01:09:43.441Z,946.85
2018-03-16T01:10:43.435Z,946.86
2018-03-16T01:11:43.431Z,946.83
2018-03-16T01:12:43.426Z,946.86
2018-03-16T01:13:43.426Z,946.88
2018-03-16T01:14:43.421Z,946.90
2018-03-16T01:15:43.411Z,946.90
2018-03-16T01:16:43.406Z,946.84
2018-03-16T01:17:43.401Z,946.87
2018-03-16T01:18:43.396Z,946.84
2018-03-16T01:19:43.392Z,946.84
2018-03-16T01:20:43.387Z,946.82
2018-03-16T01:21:43.388Z,946.85
2018-03-16T01:22:43.378Z,946.85
2018-03-16T01:23:43.372Z,946.85
2018-03-16T01:24:43.368Z,946.82
2018-03-16T01:25:43.367Z,946.80
2018-03-16T01:26:43.359Z,946.82
2018-03-16T01:27:43.352Z,946.81
2018-03-16T01:28:43.347Z,946.80
2018-03-16T01:29:43.342Z,946.78
2018-03-16T01:30:43.336Z,946.77
2018-03-16T01:31:43.332Z,946.79
2018-03-16T01:32:43.328Z,946.78
2018-03-16T01:33:43.322Z,946.76
2018-03-16T01:34:43.319Z,946.76
2018-03-16T01:35:43.351Z,946.73
2018-03-16T01:36:43.307Z,946.78
2018-03-16T01:37:43.302Z,946.76
2018-03-16T01:38:43.296Z,946.76
2018-03-16T01:39:43.291Z,946.75
2018-03-16T01:40:43.285Z,946.74
2018-03-16T01:41:43.281Z,946.78
2018-03-16T01:42:43.276Z,946.71
2018-03-16T01:43:43.270Z,946.75
2018-03-16T01:44:43.266Z,946.70
2018-03-16T01:45:43.260Z,946.71
2018-03-16T01:46:43.254Z,946.72
2018-03-16T01:47:43.248Z,946.74
2018-03-16T01:48:43.243Z,946.69
2018-03-16T01:49:43.237Z,946.67
2018-03-16T01:50:43.233Z,946.70
2018-03-16T01:51:43.225Z,946.67
2018-03-16T01:52:43.221Z,946.69
2018-03-16T01:53:43.222Z,946.69
2018-03-16T01:54:43.214Z,946.72
2018-03-16T01:55:43.206Z,946.71
2018-03-16T01:56:43.203Z,946.72
2018-03-16T01:57:43.196Z,946.72
2018-03-16T01:58:43.189Z,946.68
2018-03-16T01:59:43.187Z,946.69
2018-03-16T02:00:43.178Z,946.69
2018-03-16T02:01:43.173Z,946.68
2018-03-16T02:02:43.169Z,946.66
2018-03-16T02:03:43.163Z,946.64
2018-03-16T02:04:43.160Z,946.69
2018-03-16T02:05:43.154Z,946.72
2018-03-16T02:06:43.146Z,946.70
2018-03-16T02:07:43.140Z,946.72
2018-03-16T02:08:43.135Z,946.69
2018-03-16T02:09:43.130Z,946.71
2018-03-16T02:10:43.124Z,946.71
2018-03-16T02:11:43.119Z,946.74
2018-03-16T02:12:43.115Z,946.74
2018-03-16T02:13:43.108Z,946.74
2018-03-16T02:14:43.101Z,946.79
2018-03-16T02:15:43.098Z,946.71
2018-03-16T02:16:43.092Z,946.72
2018-03-16T02:17:43.086Z,946.67
2018-03-16T02:18:43.080Z,946.70
2018-03-16T02:19:43.083Z,946.67
2018-03-16T02:20:43.070Z,946.69
2018-03-16T02:21:43.065Z,946.67
2018-03-16T02:22:43.058Z,946.66
2018-03-16T02:23:43.053Z,946.68
2018-03-16T02:24:43.048Z,946.65
2018-03-16T02:25:43.042Z,946.64
2018-03-16T02:26:43.035Z,946.62
2018-03-16T02:27:43.030Z,946.66
2018-03-16T02:28:43.025Z,946.63
2018-03-16T02:29:43.020Z,946.67
2018-03-16T02:30:43.014Z,946.68
2018-03-16T02:31:43.008Z,946.69
2018-03-16T02:32:43.003Z,946.64
2018-03-16T02:33:42.999Z,946.66
2018-03-16T02:34:42.991Z,946.68
2018-03-16T02:35:42.984Z,946.68
2018-03-16T02:36:42.983Z,946.66
2018-03-16T02:37:42.978Z,946.67
2018-03-16T02:38:42.970Z,946.64
2018-03-16T02:39:42.962Z,946.59
2018-03-16T02:40:42.958Z,946.60
2018-03-16T02:41:42.953Z,946.55
2018-03-16T02:42:42.947Z,946.54
2018-03-16T02:43:42.946Z,946.55
2018-03-16T02:44:42.937Z,946.57
2018-03-16T02:45:42.929Z,946.55
2018-03-16T02:46:42.923Z,946.55
2018-03-16T02:47:42.921Z,946.53
2018-03-16T02:48:42.914Z,946.59
2018-03-16T02:49:42.907Z,946.55
2018-03-16T02:50:42.902Z,946.53
2018-03-16T02:51:42.898Z,946.51
2018-03-16T02:52:42.891Z,946.51
2018-03-16T02:53:42.886Z,946.52
2018-03-16T02:54:42.885Z,946.56
2018-03-16T02:55:42.872Z,946.53
2018-03-16T02:56:42.869Z,946.50
2018-03-16T02:57:42.912Z,946.48
2018-03-16T02:58:42.863Z,946.53
2018-03-16T02:59:42.851Z,946.53
2018-03-16T03:00:42.847Z,946.54
2018-03-16T03:01:42.839Z,946.52
2018-03-16T03:02:42.832Z,946.58
2018-03-16T03:03:42.829Z,946.57
2018-03-16T03:04:42.835Z,946.59
2018-03-16T03:05:42.819Z,946.60
2018-03-16T03:06:42.872Z,946.55
2018-03-16T03:07:42.805Z,946.55
2018-03-16T03:08:42.800Z,946.50
2018-03-16T03:09:42.793Z,946.51
2018-03-16T03:10:42.788Z,946.50
2018-03-16T03:11:42.782Z,946.51
2018-03-16T03:12:42.781Z,946.52
2018-03-16T03:13:42.772Z,946.52
2018-03-16T03:14:42.765Z,946.56
2018-03-16T03:15:42.759Z,946.55
2018-03-16T03:16:42.753Z,946.57
2018-03-16T03:17:42.748Z,946.56
2018-03-16T03:18:42.742Z,946.53
2018-03-16T03:19:42.736Z,946.54
2018-03-16T03:20:42.734Z,946.56
2018-03-16T03:21:42.726Z,946.58
2018-03-16T03:22:42.725Z,946.55
2018-03-16T03:23:42.714Z,946.60
2018-03-16T03:24:42.707Z,946.58
2018-03-16T03:25:42.705Z,946.59
2018-03-16T03:26:42.697Z,946.61
2018-03-16T03:27:42.691Z,946.50
2018-03-16T03:28:42.687Z,946.56
2018-03-16T03:29:42.680Z,946.53
2018-03-16T03:30:42.680Z,946.54
2018-03-16T03:31:42.670Z,946.55
2018-03-16T03:32:42.664Z,946.56
2018-03-16T03:33:42.658Z,946.57
2018-03-16T03:34:42.655Z,946.58
2018-03-16T03:35:42.645Z,946.58
2018-03-16T03:36:42.644Z,946.58
2018-03-16T03:37:42.634Z,946.59
2018-03-16T03:38:42.627Z,946.58
2018-03-16T03:39:42.622Z,946.62
2018-03-16T03:40:42.617Z,946.61
2018-03-16T03:41:42.612Z,946.58
2018-03-16T03:42:42.604Z,946.56
2018-03-16T03:43:42.598Z,946.57
2018-03-16T03:44:42.595Z,946.59
2018-03-16T03:45:42.588Z,946.60
2018-03-16T03:46:42.583Z,946.56
2018-03-16T03:47:42.576Z,946.56
2018-03-16T03:48:42.572Z,946.54
2018-03-16T03:49:42.566Z,946.57
2018-03-16T03:50:42.562Z,946.52
2018-03-16T03:51:42.555Z,946.50
2018-03-16T03:52:42.548Z,946.53
2018-03-16T03:53:42.544Z,946.56
2018-03-16T03:54:42.540Z,946.57
2018-03-16T03:55:42.535Z,946.58
2018-03-16T03:56:42.526Z,946.57
2018-03-16T03:57:42.521Z,946.62
2018-03-16T03:58:42.565Z,946.61
2018-03-16T03:59:55.317Z,946.61
2018-03-16T04:00:46.552Z,946.61
2018-03-16T04:03:31.097Z,946.58
2018-03-16T04:04:31.046Z,946.54
2018-03-16T04:06:25.421Z,946.54
2018-03-16T04:07:25.395Z,946.61
2018-03-16T04:09:19.762Z,946.56
2018-03-16T04:10:19.743Z,946.57
2018-03-16T04:12:14.456Z,946.56
2018-03-16T04:13:14.094Z,946.60
2018-03-16T04:15:08.456Z,946.57
2018-03-16T04:16:08.444Z,946.56
2018-03-16T04:17:08.435Z,946.56
2018-03-16T04:18:08.427Z,946.57
2018-03-16T04:19:08.426Z,946.54
2018-03-16T04:20:08.419Z,946.54
2018-03-16T04:21:08.416Z,946.58
2018-03-16T04:22:08.406Z,946.57
2018-03-16T04:23:08.399Z,946.61
2018-03-16T04:24:08.394Z,946.54
2018-03-16T04:25:08.389Z,946.59
2018-03-16T04:26:08.382Z,946.58
2018-03-16T04:27:08.381Z,946.60
2018-03-16T04:28:08.372Z,946.62
2018-03-16T04:29:08.365Z,946.60
2018-03-16T04:30:08.359Z,946.59
2018-03-16T04:31:08.354Z,946.59
2018-03-16T04:32:08.347Z,946.62
2018-03-16T04:33:08.342Z,946.59
2018-03-16T04:34:08.336Z,946.61
2018-03-16T04:35:08.332Z,946.56
2018-03-16T04:36:08.327Z,946.61
2018-03-16T04:37:08.486Z,946.57
2018-03-16T04:38:08.313Z,946.56
2018-03-16T04:39:08.307Z,946.57
2018-03-16T04:40:08.304Z,946.61
2018-03-16T04:41:08.296Z,946.60
2018-03-16T04:42:08.290Z,946.61
2018-03-16T04:43:08.288Z,946.67
2018-03-16T04:44:08.352Z,946.66
2018-03-16T04:45:08.277Z,946.72
2018-03-16T04:46:08.279Z,946.68
2018-03-16T04:47:08.261Z,946.65
2018-03-16T04:48:08.261Z,946.67
2018-03-16T04:49:08.252Z,946.65
2018-03-16T04:50:08.243Z,946.65
2018-03-16T04:51:08.241Z,946.66
2018-03-16T04:52:08.232Z,946.68
2018-03-16T04:53:08.229Z,946.68
2018-03-16T04:54:08.221Z,946.65
2018-03-16T04:55:08.218Z,946.66
2018-03-16T04:56:08.210Z,946.70
2018-03-16T04:57:08.205Z,946.66
2018-03-16T04:58:08.198Z,946.64
2018-03-16T04:59:08.193Z,946.64
2018-03-16T05:00:08.186Z,946.63
2018-03-16T05:01:08.184Z,946.67
2018-03-16T05:02:08.174Z,946.66
2018-03-16T05:03:08.169Z,946.66
2018-03-16T05:04:08.165Z,946.65
2018-03-16T05:05:08.161Z,946.67
2018-03-16T05:06:08.150Z,946.71
2018-03-16T05:07:08.165Z,946.70
2018-03-16T05:08:08.143Z,946.73
2018-03-16T05:09:08.136Z,946.69
2018-03-16T05:10:08.141Z,946.71
2018-03-16T05:11:08.125Z,946.73
2018-03-16T05:12:08.127Z,946.68
2018-03-16T05:13:08.113Z,946.73
2018-03-16T05:14:08.105Z,946.69
2018-03-16T05:15:08.102Z,946.68
2018-03-16T05:16:08.095Z,946.66
2018-03-16T05:17:08.090Z,946.68
2018-03-16T05:18:08.084Z,946.65
2018-03-16T05:19:08.079Z,946.62
2018-03-16T05:20:08.078Z,946.70
2018-03-16T05:21:08.066Z,946.70
2018-03-16T05:22:08.061Z,946.72
2018-03-16T05:23:08.055Z,946.70
2018-03-16T05:24:08.049Z,946.70
2018-03-16T05:25:08.044Z,946.70
2018-03-16T05:26:08.048Z,946.69
2018-03-16T05:27:08.032Z,946.69
2018-03-16T05:28:08.027Z,946.71
2018-03-16T05:29:08.021Z,946.71
2018-03-16T05:30:08.014Z,946.72
2018-03-16T05:31:08.030Z,946.68
2018-03-16T05:32:08.003Z,946.70
2018-03-16T05:33:07.997Z,946.75
2018-03-16T05:34:07.993Z,946.75
2018-03-16T05:35:07.985Z,946.71
2018-03-16T05:36:07.980Z,946.78
2018-03-16T05:37:07.974Z,946.79
2018-03-16T05:38:07.968Z,946.79
2018-03-16T05:39:07.962Z,946.79
2018-03-16T05:40:07.956Z,946.77
2018-03-16T05:41:07.950Z,946.81
2018-03-16T05:42:07.949Z,946.83
2018-03-16T05:43:07.939Z,946.82
2018-03-16T05:44:07.933Z,946.83
2018-03-16T05:45:07.928Z,946.85
2018-03-16T05:46:07.960Z,946.84
2018-03-16T05:47:07.914Z,946.82
2018-03-16T05:48:07.910Z,946.80
2018-03-16T05:49:07.942Z,946.84
2018-03-16T05:50:07.898Z,946.87
2018-03-16T05:51:07.892Z,946.92
2018-03-16T05:52:07.887Z,946.89
2018-03-16T05:53:07.881Z,946.88
2018-03-16T05:54:07.875Z,946.90
2018-03-16T05:55:07.871Z,946.92
2018-03-16T05:56:07.866Z,946.91
2018-03-16T05:57:07.858Z,946.92
2018-03-16T05:58:07.876Z,946.92
2018-03-16T05:59:07.846Z,946.93
2018-03-16T06:00:07.841Z,946.91
2018-03-16T06:01:07.838Z,946.94
2018-03-16T06:02:07.829Z,946.92
2018-03-16T06:03:07.823Z,946.94
2018-03-16T06:04:07.817Z,946.94
2018-03-16T06:05:07.813Z,946.96
2018-03-16T06:06:07.809Z,946.92
2018-03-16T06:07:07.800Z,946.94
2018-03-16T06:08:07.794Z,946.93
2018-03-16T06:09:07.792Z,946.93
2018-03-16T06:10:07.782Z,946.93
2018-03-16T06:11:07.780Z,946.94
2018-03-16T06:12:07.772Z,946.91
2018-03-16T06:13:07.768Z,946.94
2018-03-16T06:14:07.760Z,946.92
2018-03-16T06:15:07.756Z,946.96
2018-03-16T06:16:07.749Z,946.94
2018-03-16T06:17:07.745Z,946.95
2018-03-16T06:18:07.736Z,946.94
2018-03-16T06:19:07.732Z,946.91
2018-03-16T06:20:07.726Z,946.92
2018-03-16T06:21:07.720Z,946.92
2018-03-16T06:22:07.713Z,946.90
2018-03-16T06:23:07.714Z,946.90
2018-03-16T06:24:07.707Z,946.91
2018-03-16T06:25:07.700Z,946.90
2018-03-16T06:26:07.696Z,946.95
2018-03-16T06:27:07.686Z,946.91
2018-03-16T06:28:07.689Z,946.90
2018-03-16T06:29:07.676Z,946.93
2018-03-16T06:30:07.671Z,946.89
2018-03-16T06:31:07.664Z,946.87
2018-03-16T06:32:07.659Z,946.93
2018-03-16T06:33:07.655Z,946.87
2018-03-16T06:34:07.647Z,946.89
2018-03-16T06:35:07.643Z,946.92
2018-03-16T06:36:07.648Z,946.89
2018-03-16T06:37:07.630Z,946.93
2018-03-16T06:38:07.623Z,946.95
2018-03-16T06:39:07.621Z,946.93
2018-03-16T06:40:07.612Z,946.94
2018-03-16T06:41:07.609Z,946.96
2018-03-16T06:42:07.603Z,946.96
2018-03-16T06:43:07.597Z,946.95
2018-03-16T06:44:07.591Z,947.00
2018-03-16T06:45:07.607Z,946.97
2018-03-16T06:46:07.578Z,946.99
2018-03-16T06:47:07.575Z,946.99
2018-03-16T06:48:07.568Z,946.98
2018-03-16T06:49:07.562Z,947.00
2018-03-16T06:50:07.557Z,947.01
2018-03-16T06:51:07.551Z,947.00
2018-03-16T06:52:07.546Z,947.01
2018-03-16T06:53:07.540Z,947.01
2018-03-16T06:54:07.534Z,946.99
2018-03-16T06:55:07.528Z,947.01
2018-03-16T06:56:07.524Z,946.96
2018-03-16T06:57:07.518Z,947.00
2018-03-16T06:58:07.513Z,946.99
2018-03-16T06:59:07.506Z,946.96
2018-03-16T07:00:07.500Z,946.98
2018-03-16T07:01:07.495Z,947.01
2018-03-16T07:02:07.491Z,947.02
2018-03-16T07:03:07.486Z,947.04
2018-03-16T07:04:07.478Z,947.07
2018-03-16T07:05:07.474Z,947.08
2018-03-16T07:06:07.467Z,947.06
2018-03-16T07:07:07.462Z,947.06
2018-03-16T07:08:07.457Z,947.06
2018-03-16T07:09:07.451Z,947.08
2018-03-16T07:10:07.444Z,947.12
2018-03-16T07:11:07.439Z,947.12
2018-03-16T07:12:07.447Z,947.08
2018-03-16T07:13:07.428Z,947.13
2018-03-16T07:14:07.423Z,947.14
2018-03-16T07:15:07.418Z,947.15
2018-03-16T07:16:07.413Z,947.20
2018-03-16T07:17:07.410Z,947.15
2018-03-16T07:18:07.402Z,947.17
2018-03-16T07:19:07.396Z,947.19
2018-03-16T07:20:07.392Z,947.19
2018-03-16T07:21:07.386Z,947.20
2018-03-16T07:22:07.380Z,947.22
2018-03-16T07:23:07.374Z,947.22
2018-03-16T07:24:07.370Z,947.21
2018-03-16T07:25:07.364Z,947.24
2018-03-16T07:26:07.358Z,947.24
2018-03-16T07:27:07.352Z,947.27
2018-03-16T07:28:07.350Z,947.28
2018-03-16T07:29:07.343Z,947.27
2018-03-16T07:30:07.337Z,947.26
2018-03-16T07:31:07.331Z,947.31
2018-03-16T07:32:07.327Z,947.28
2018-03-16T07:33:07.322Z,947.29
2018-03-16T07:34:07.316Z,947.29
2018-03-16T07:35:07.311Z,947.33
2018-03-16T07:36:07.310Z,947.34
2018-03-16T07:37:07.355Z,947.33
2018-03-16T07:38:07.296Z,947.30
2018-03-16T07:39:07.291Z,947.31
2018-03-16T07:40:07.286Z,947.31
2018-03-16T07:41:07.283Z,947.34
2018-03-16T07:42:07.277Z,947.35
2018-03-16T07:43:07.271Z,947.33
2018-03-16T07:44:08.082Z,947.37
2018-03-16T07:45:07.261Z,947.35
2018-03-16T07:46:07.254Z,947.39
2018-03-16T07:47:07.249Z,947.40
2018-03-16T07:48:07.246Z,947.40
2018-03-16T07:49:07.241Z,947.35
2018-03-16T07:50:07.234Z,947.38
2018-03-16T07:51:07.231Z,947.38
2018-03-16T07:52:07.230Z,947.38
2018-03-16T07:53:07.220Z,947.40
2018-03-16T07:54:07.217Z,947.39
2018-03-16T07:55:07.214Z,947.39
2018-03-16T07:56:07.210Z,947.41
2018-03-16T07:57:07.201Z,947.38
2018-03-16T07:58:07.196Z,947.42
2018-03-16T07:59:07.192Z,947.42
2018-03-16T08:00:07.193Z,947.39
2018-03-16T08:01:07.199Z,947.42
2018-03-16T08:02:07.176Z,947.46
2018-03-16T08:03:07.171Z,947.43
2018-03-16T08:04:07.171Z,947.41
2018-03-16T08:05:08.275Z,947.36
2018-03-16T08:06:07.279Z,947.44
2018-03-16T08:07:07.227Z,947.41
2018-03-16T08:08:07.219Z,947.43
2018-03-16T08:09:07.229Z,947.43
2018-03-16T08:10:07.225Z,947.45
2018-03-16T08:11:07.134Z,947.47
2018-03-16T08:12:07.130Z,947.47
2018-03-16T08:13:07.126Z,947.47
2018-03-16T08:14:07.118Z,947.47
2018-03-16T08:15:07.122Z,947.45
2018-03-16T08:16:07.113Z,947.43
2018-03-16T08:17:07.108Z,947.46
2018-03-16T08:18:07.100Z,947.47
2018-03-16T08:19:07.095Z,947.45
2018-03-16T08:20:07.094Z,947.49
2018-03-16T08:21:07.085Z,947.50
2018-03-16T08:22:07.080Z,947.50
2018-03-16T08:23:07.075Z,947.49
2018-03-16T08:24:07.116Z,947.48
2018-03-16T08:25:07.070Z,947.52
2018-03-16T08:26:07.062Z,947.55
2018-03-16T08:27:07.059Z,947.55
2018-03-16T08:28:07.080Z,947.49
2018-03-16T08:29:07.048Z,947.50
2018-03-16T08:30:07.048Z,947.55
2018-03-16T08:31:07.038Z,947.53
2018-03-16T08:32:07.036Z,947.54
2018-03-16T08:33:07.041Z,947.52
2018-03-16T08:34:07.028Z,947.53
2018-03-16T08:35:07.115Z,947.54
2018-03-16T08:36:07.018Z,947.57
2018-03-16T08:37:07.013Z,947.54
2018-03-16T08:38:07.020Z,947.57
2018-03-16T08:39:07.040Z,947.59
2018-03-16T08:40:07.002Z,947.57
2018-03-16T08:41:06.996Z,947.49
2018-03-16T08:42:06.992Z,947.51
2018-03-16T08:43:06.993Z,947.52
2018-03-16T08:44:06.982Z,947.55
2018-03-16T08:45:06.981Z,947.54
2018-03-16T08:46:06.998Z,947.52
2018-03-16T08:47:06.971Z,947.54
2018-03-16T08:48:06.964Z,947.56
2018-03-16T08:49:06.959Z,947.57
2018-03-16T08:50:06.954Z,947.56
2018-03-16T08:51:06.967Z,947.47
2018-03-16T08:52:06.947Z,947.47
2018-03-16T08:53:06.941Z,947.52
2018-03-16T08:54:06.937Z,947.50
2018-03-16T08:55:06.935Z,947.52
2018-03-16T08:56:06.932Z,947.49
2018-03-16T08:57:06.924Z,947.55
2018-03-16T08:58:06.919Z,947.47
2018-03-16T08:59:06.916Z,947.52
2018-03-16T09:00:06.911Z,947.52
2018-03-16T09:01:06.907Z,947.52
2018-03-16T09:02:06.902Z,947.50
2018-03-16T09:03:06.898Z,947.55
2018-03-16T09:04:06.896Z,947.62
2018-03-16T09:05:06.890Z,947.58
2018-03-16T09:06:06.884Z,947.61
2018-03-16T09:07:06.880Z,947.60
2018-03-16T09:08:06.875Z,947.62
2018-03-16T09:09:06.873Z,947.64
2018-03-16T09:10:06.872Z,947.62
2018-03-16T09:11:06.863Z,947.60
2018-03-16T09:12:06.860Z,947.61
2018-03-16T09:13:06.854Z,947.64
2018-03-16T09:14:06.850Z,947.65
2018-03-16T09:15:06.846Z,947.62
2018-03-16T09:16:06.846Z,947.64
2018-03-16T09:17:06.926Z,947.61
2018-03-16T09:18:06.833Z,947.65
2018-03-16T09:19:06.836Z,947.67
2018-03-16T09:20:06.830Z,947.66
2018-03-16T09:21:06.824Z,947.68
2018-03-16T09:22:06.815Z,947.72
2018-03-16T09:23:06.811Z,947.73
2018-03-16T09:24:06.806Z,947.72
2018-03-16T09:25:06.802Z,947.73
2018-03-16T09:26:06.797Z,947.73
2018-03-16T09:27:06.799Z,947.76
2018-03-16T09:28:06.790Z,947.76
2018-03-16T09:29:06.785Z,947.75
2018-03-16T09:30:06.781Z,947.79
2018-03-16T09:31:06.775Z,947.73
2018-03-16T09:32:06.773Z,947.76
2018-03-16T09:33:06.768Z,947.79
2018-03-16T09:34:06.763Z,947.77
2018-03-16T09:35:06.759Z,947.75
2018-03-16T09:36:06.754Z,947.79
2018-03-16T09:37:06.751Z,947.79
2018-03-16T09:38:06.745Z,947.80
2018-03-16T09:39:06.741Z,947.77
2018-03-16T09:40:06.738Z,947.79
2018-03-16T09:41:06.733Z,947.76
2018-03-16T09:42:06.728Z,947.78
2018-03-16T09:43:06.728Z,947.82
2018-03-16T09:44:06.721Z,947.76
2018-03-16T09:45:06.721Z,947.80
2018-03-16T09:46:06.711Z,947.81
2018-03-16T09:47:06.708Z,947.83
2018-03-16T09:48:06.703Z,947.82
2018-03-16T09:49:06.700Z,947.80
2018-03-16T09:50:06.695Z,947.78
2018-03-16T09:51:06.689Z,947.81
2018-03-16T09:52:06.686Z,947.79
2018-03-16T09:53:06.683Z,947.71
2018-03-16T09:54:06.677Z,947.76
2018-03-16T09:55:06.684Z,947.81
2018-03-16T09:56:06.669Z,947.80
2018-03-16T09:57:06.668Z,947.83
2018-03-16T09:58:06.662Z,947.78
2018-03-16T09:59:06.656Z,947.81
2018-03-16T10:00:06.653Z,947.84
2018-03-16T10:01:06.649Z,947.83
2018-03-16T10:02:06.693Z,947.82
2018-03-16T10:03:06.645Z,947.82
2018-03-16T10:04:06.636Z,947.83
2018-03-16T10:05:06.631Z,947.82
2018-03-16T10:06:06.630Z,947.84
2018-03-16T10:07:06.621Z,947.86
2018-03-16T10:08:06.617Z,947.82
2018-03-16T10:09:06.615Z,947.87
2018-03-16T10:10:06.609Z,947.88
2018-03-16T10:11:06.603Z,947.83
2018-03-16T10:12:06.638Z,947.87
2018-03-16T10:13:06.596Z,947.82
2018-03-16T10:14:06.593Z,947.87
2018-03-16T10:15:06.588Z,947.83
2018-03-16T10:16:06.584Z,947.86
2018-03-16T10:17:06.583Z,947.85
2018-03-16T10:18:06.577Z,947.87
2018-03-16T10:19:06.572Z,947.87
2018-03-16T10:20:06.568Z,947.84
2018-03-16T10:21:06.564Z,947.83
2018-03-16T10:22:06.559Z,947.90
2018-03-16T10:23:06.557Z,947.92
2018-03-16T10:24:06.551Z,947.97
2018-03-16T10:25:06.548Z,947.96
2018-03-16T10:26:06.542Z,947.97
2018-03-16T10:27:06.538Z,948.00
2018-03-16T10:28:06.536Z,948.03
2018-03-16T10:29:06.531Z,948.02
2018-03-16T10:30:06.549Z,948.01
2018-03-16T10:31:06.591Z,948.02
2018-03-16T10:32:06.521Z,948.03
2018-03-16T10:33:06.513Z,948.00
2018-03-16T10:34:06.508Z,947.98
2018-03-16T10:35:06.506Z,948.01
2018-03-16T10:36:06.502Z,948.03
2018-03-16T10:37:06.542Z,948.02
2018-03-16T10:38:06.493Z,948.02
2018-03-16T10:39:06.486Z,948.06
2018-03-16T10:40:06.484Z,948.03
2018-03-16T10:41:06.485Z,948.04
2018-03-16T10:42:06.476Z,948.05
2018-03-16T10:43:06.472Z,948.04
2018-03-16T10:44:06.466Z,948.04
2018-03-16T10:45:06.463Z,948.08
2018-03-16T10:46:06.460Z,948.04
2018-03-16T10:47:06.456Z,948.06
2018-03-16T10:48:06.453Z,948.08
2018-03-16T10:49:06.450Z,948.09
2018-03-16T10:50:06.443Z,948.08
2018-03-16T10:51:06.437Z,948.06
2018-03-16T10:52:06.436Z,948.05
2018-03-16T10:53:06.427Z,948.04
2018-03-16T10:54:06.423Z,948.05
2018-03-16T10:55:06.419Z,948.05
2018-03-16T10:56:06.414Z,948.03
2018-03-16T10:57:06.413Z,948.07
2018-03-16T10:58:06.407Z,948.02
2018-03-16T10:59:06.402Z,947.99
2018-03-16T11:00:06.398Z,948.03
2018-03-16T11:01:06.394Z,948.09
2018-03-16T11:02:06.388Z,948.10
2018-03-16T11:03:06.390Z,948.11
2018-03-16T11:04:06.383Z,948.11
2018-03-16T11:05:06.376Z,948.14
2018-03-16T11:06:06.370Z,948.16
2018-03-16T11:07:06.368Z,948.11
2018-03-16T11:08:06.362Z,948.18
2018-03-16T11:09:06.359Z,948.19
2018-03-16T11:10:06.356Z,948.14
2018-03-16T11:11:06.370Z,948.13
2018-03-16T11:12:06.345Z,948.17
2018-03-16T11:13:06.347Z,948.17
2018-03-16T11:14:06.337Z,948.14
2018-03-16T11:15:06.332Z,948.19
2018-03-16T11:16:06.328Z,948.13
2018-03-16T11:17:06.326Z,948.18
2018-03-16T11:18:06.358Z,948.20
2018-03-16T11:19:06.315Z,948.21
2018-03-16T11:20:06.312Z,948.21
2018-03-16T11:21:06.310Z,948.21
2018-03-16T11:22:06.319Z,948.20
2018-03-16T11:23:06.302Z,948.23
2018-03-16T11:24:06.294Z,948.16
2018-03-16T11:25:06.292Z,948.22
2018-03-16T11:26:06.287Z,948.23
2018-03-16T11:27:06.288Z,948.19
2018-03-16T11:28:06.286Z,948.22
2018-03-16T11:29:06.272Z,948.26
2018-03-16T11:30:06.268Z,948.26
2018-03-16T11:31:06.271Z,948.25
2018-03-16T11:32:06.267Z,948.26
2018-03-16T11:33:06.255Z,948.29
2018-03-16T11:34:06.264Z,948.23
2018-03-16T11:35:06.246Z,948.23
2018-03-16T11:36:06.244Z,948.33
2018-03-16T11:37:06.243Z,948.32
2018-03-16T11:38:06.236Z,948.35
2018-03-16T11:39:06.282Z,948.35
2018-03-16T11:40:06.224Z,948.37
2018-03-16T11:41:06.221Z,948.34
2018-03-16T11:42:06.222Z,948.33
2018-03-16T11:43:06.589Z,948.32
2018-03-16T11:44:06.314Z,948.32
2018-03-16T11:45:06.258Z,948.31
2018-03-16T11:46:07.045Z,948.34
2018-03-16T11:47:06.197Z,948.30
2018-03-16T11:48:06.227Z,948.35
2018-03-16T11:49:06.187Z,948.35
2018-03-16T11:50:06.189Z,948.33
2018-03-16T11:51:06.244Z,948.33
2018-03-16T11:52:06.174Z,948.34
2018-03-16T11:53:06.171Z,948.36
2018-03-16T11:54:06.168Z,948.34
2018-03-16T11:55:06.189Z,948.33
2018-03-16T11:56:06.159Z,948.33
2018-03-16T11:57:06.155Z,948.29
2018-03-16T11:58:06.216Z,948.29
2018-03-16T11:59:06.264Z,948.31
2018-03-16T12:00:06.140Z,948.27
2018-03-16T12:01:06.142Z,948.31
2018-03-16T12:02:06.178Z,948.36
2018-03-16T12:03:06.127Z,948.37
2018-03-16T12:04:06.126Z,948.37
2018-03-16T12:05:06.118Z,948.40
2018-03-16T12:06:06.115Z,948.39
2018-03-16T12:07:06.111Z,948.39
2018-03-16T12:08:06.107Z,948.35
2018-03-16T12:09:06.102Z,948.38
2018-03-16T12:10:06.113Z,948.36
2018-03-16T12:11:06.092Z,948.34
2018-03-16T12:12:06.088Z,948.37
2018-03-16T12:13:06.082Z,948.38
2018-03-16T12:14:06.078Z,948.43
2018-03-16T12:15:06.078Z,948.43
2018-03-16T12:16:06.070Z,948.39
2018-03-16T12:17:06.069Z,948.38
2018-03-16T12:18:06.062Z,948.42
2018-03-16T12:19:06.066Z,948.40
2018-03-16T12:20:06.054Z,948.41
2018-03-16T12:21:06.047Z,948.43
2018-03-16T12:22:06.041Z,948.43
2018-03-16T12:23:06.042Z,948.39
2018-03-16T12:24:06.032Z,948.45
2018-03-16T12:25:06.029Z,948.40
2018-03-16T12:26:06.026Z,948.36
2018-03-16T12:27:06.019Z,948.41
2018-03-16T12:28:06.014Z,948.43
2018-03-16T12:29:06.009Z,948.36
2018-03-16T12:30:06.010Z,948.40
2018-03-16T12:31:06.000Z,948.43
2018-03-16T12:32:05.996Z,948.44
2018-03-16T12:33:05.991Z,948.43
2018-03-16T12:34:05.986Z,948.42